sensor_id;sensor_type;location;lat;lon;timestamp;temperature;humidity
23713;DHT22;12035;49.978;8.298;2023-02-15T00:01:40;5.30;77.90
23713;DHT22;12035;49.978;8.298;2023-02-15T00:06:40;5.30;77.90
23713;DHT22;12035;49.978;8.298;2023-02-15T00:11:38;5.40;78.30
23713;DHT22;12035;49.978;8.298;2023-02-15T00:16:41;5.40;78.20
23713;DHT22;12035;49.978;8.298;2023-02-15T00:21:41;5.50;78.10
23713;DHT22;12035;49.978;8.298;2023-02-15T00:26:40;5.50;77.90
23713;DHT22;12035;49.978;8.298;2023-02-15T00:31:38;5.50;77.80
23713;DHT22;12035;49.978;8.298;2023-02-15T00:36:35;5.50;77.80
23713;DHT22;12035;49.978;8.298;2023-02-15T00:41:33;5.60;78.00
23713;DHT22;12035;49.978;8.298;2023-02-15T00:46:31;5.70;78.00
23713;DHT22;12035;49.978;8.298;2023-02-15T00:51:29;5.70;77.70
23713;DHT22;12035;49.978;8.298;2023-02-15T00:56:26;5.80;77.70
23713;DHT22;12035;49.978;8.298;2023-02-15T01:01:25;5.80;77.40
23713;DHT22;12035;49.978;8.298;2023-02-15T01:06:22;5.70;77.40
23713;DHT22;12035;49.978;8.298;2023-02-15T01:11:21;5.70;77.40
23713;DHT22;12035;49.978;8.298;2023-02-15T01:16:21;5.70;77.50
23713;DHT22;12035;49.978;8.298;2023-02-15T01:21:25;5.60;77.60
23713;DHT22;12035;49.978;8.298;2023-02-15T01:26:22;5.50;77.90
23713;DHT22;12035;49.978;8.298;2023-02-15T01:31:20;5.50;77.90
23713;DHT22;12035;49.978;8.298;2023-02-15T01:36:17;5.40;78.20
23713;DHT22;12035;49.978;8.298;2023-02-15T01:41:16;5.50;78.20
23713;DHT22;12035;49.978;8.298;2023-02-15T01:46:20;5.40;78.40
23713;DHT22;12035;49.978;8.298;2023-02-15T01:51:24;5.30;78.40
23713;DHT22;12035;49.978;8.298;2023-02-15T01:56:28;5.30;78.60
23713;DHT22;12035;49.978;8.298;2023-02-15T02:01:27;5.30;78.70
23713;DHT22;12035;49.978;8.298;2023-02-15T02:06:26;5.30;78.70
23713;DHT22;12035;49.978;8.298;2023-02-15T02:11:25;5.40;78.80
23713;DHT22;12035;49.978;8.298;2023-02-15T02:16:25;5.40;78.80
23713;DHT22;12035;49.978;8.298;2023-02-15T02:27:34;5.40;78.80
23713;DHT22;12035;49.978;8.298;2023-02-15T02:32:58;5.30;78.60
23713;DHT22;12035;49.978;8.298;2023-02-15T02:38:21;5.30;78.90
23713;DHT22;12035;49.978;8.298;2023-02-15T02:43:28;5.30;78.80
23713;DHT22;12035;49.978;8.298;2023-02-15T02:48:33;5.30;78.70
23713;DHT22;12035;49.978;8.298;2023-02-15T02:53:31;5.30;78.70
23713;DHT22;12035;49.978;8.298;2023-02-15T02:58:32;5.30;78.70
23713;DHT22;12035;49.978;8.298;2023-02-15T03:03:37;5.30;78.70
23713;DHT22;12035;49.978;8.298;2023-02-15T03:08:37;5.30;78.70
23713;DHT22;12035;49.978;8.298;2023-02-15T03:13:38;5.30;78.90
23713;DHT22;12035;49.978;8.298;2023-02-15T03:18:41;5.40;78.90
23713;DHT22;12035;49.978;8.298;2023-02-15T03:23:40;5.40;78.90
23713;DHT22;12035;49.978;8.298;2023-02-15T03:28:42;5.50;78.90
23713;DHT22;12035;49.978;8.298;2023-02-15T03:33:49;5.60;78.60
23713;DHT22;12035;49.978;8.298;2023-02-15T03:38:52;5.60;78.30
23713;DHT22;12035;49.978;8.298;2023-02-15T03:43:57;5.60;78.10
23713;DHT22;12035;49.978;8.298;2023-02-15T03:49:01;5.50;78.10
23713;DHT22;12035;49.978;8.298;2023-02-15T03:54:03;5.40;78.20
23713;DHT22;12035;49.978;8.298;2023-02-15T03:59:03;5.30;78.10
23713;DHT22;12035;49.978;8.298;2023-02-15T04:04:21;5.30;78.30
23713;DHT22;12035;49.978;8.298;2023-02-15T04:09:19;5.20;78.50
23713;DHT22;12035;49.978;8.298;2023-02-15T04:14:34;5.20;78.60
23713;DHT22;12035;49.978;8.298;2023-02-15T04:19:50;5.20;78.50
23713;DHT22;12035;49.978;8.298;2023-02-15T04:25:05;5.20;78.70
23713;DHT22;12035;49.978;8.298;2023-02-15T04:30:09;5.20;78.60
23713;DHT22;12035;49.978;8.298;2023-02-15T04:35:10;5.20;78.70
23713;DHT22;12035;49.978;8.298;2023-02-15T04:40:09;5.20;78.80
23713;DHT22;12035;49.978;8.298;2023-02-15T04:45:09;5.20;78.80
23713;DHT22;12035;49.978;8.298;2023-02-15T04:50:06;5.20;78.80
23713;DHT22;12035;49.978;8.298;2023-02-15T04:55:06;5.20;78.80
23713;DHT22;12035;49.978;8.298;2023-02-15T05:00:05;5.30;79.00
23713;DHT22;12035;49.978;8.298;2023-02-15T05:05:05;5.30;78.80
23713;DHT22;12035;49.978;8.298;2023-02-15T05:10:07;5.30;78.60
23713;DHT22;12035;49.978;8.298;2023-02-15T05:15:05;5.30;78.60
23713;DHT22;12035;49.978;8.298;2023-02-15T05:20:03;5.30;78.60
23713;DHT22;12035;49.978;8.298;2023-02-15T05:25:01;5.40;78.60
23713;DHT22;12035;49.978;8.298;2023-02-15T05:30:18;5.30;78.40
23713;DHT22;12035;49.978;8.298;2023-02-15T05:35:15;5.30;78.20
23713;DHT22;12035;49.978;8.298;2023-02-15T05:40:13;5.30;79.10
23713;DHT22;12035;49.978;8.298;2023-02-15T05:45:10;5.20;78.30
23713;DHT22;12035;49.978;8.298;2023-02-15T05:50:10;5.20;78.50
23713;DHT22;12035;49.978;8.298;2023-02-15T05:55:07;5.20;78.60
23713;DHT22;12035;49.978;8.298;2023-02-15T06:00:06;5.20;78.60
23713;DHT22;12035;49.978;8.298;2023-02-15T06:05:06;5.20;78.60
23713;DHT22;12035;49.978;8.298;2023-02-15T06:10:08;5.20;78.50
23713;DHT22;12035;49.978;8.298;2023-02-15T06:15:06;5.20;78.30
23713;DHT22;12035;49.978;8.298;2023-02-15T06:20:04;5.20;78.50
23713;DHT22;12035;49.978;8.298;2023-02-15T06:25:04;5.30;78.60
23713;DHT22;12035;49.978;8.298;2023-02-15T06:30:01;5.20;78.50
23713;DHT22;12035;49.978;8.298;2023-02-15T06:34:58;5.20;78.20
23713;DHT22;12035;49.978;8.298;2023-02-15T06:39:56;5.30;78.20
23713;DHT22;12035;49.978;8.298;2023-02-15T06:44:55;5.30;78.20
23713;DHT22;12035;49.978;8.298;2023-02-15T06:49:53;5.30;77.90
23713;DHT22;12035;49.978;8.298;2023-02-15T06:54:50;5.20;77.70
23713;DHT22;12035;49.978;8.298;2023-02-15T06:59:47;5.20;77.80
23713;DHT22;12035;49.978;8.298;2023-02-15T07:04:45;5.20;77.90
23713;DHT22;12035;49.978;8.298;2023-02-15T07:09:43;5.20;77.90
23713;DHT22;12035;49.978;8.298;2023-02-15T07:14:40;5.20;77.80
23713;DHT22;12035;49.978;8.298;2023-02-15T07:19:37;5.20;77.70
23713;DHT22;12035;49.978;8.298;2023-02-15T07:24:35;5.10;77.50
23713;DHT22;12035;49.978;8.298;2023-02-15T07:29:32;5.10;78.40
23713;DHT22;12035;49.978;8.298;2023-02-15T07:34:29;5.10;77.70
23713;DHT22;12035;49.978;8.298;2023-02-15T07:39:27;5.10;77.80
23713;DHT22;12035;49.978;8.298;2023-02-15T07:44:25;5.20;77.80
23713;DHT22;12035;49.978;8.298;2023-02-15T07:49:22;5.30;77.60
23713;DHT22;12035;49.978;8.298;2023-02-15T07:54:20;5.20;77.30
23713;DHT22;12035;49.978;8.298;2023-02-15T07:59:17;5.20;77.20
23713;DHT22;12035;49.978;8.298;2023-02-15T08:04:15;5.20;77.20
23713;DHT22;12035;49.978;8.298;2023-02-15T08:09:13;5.20;77.30
23713;DHT22;12035;49.978;8.298;2023-02-15T08:14:12;5.30;77.60
23713;DHT22;12035;49.978;8.298;2023-02-15T08:19:12;5.20;77.70
23713;DHT22;12035;49.978;8.298;2023-02-15T08:24:12;5.30;77.60
23713;DHT22;12035;49.978;8.298;2023-02-15T08:29:10;5.30;77.50
23713;DHT22;12035;49.978;8.298;2023-02-15T08:34:08;5.30;77.30
23713;DHT22;12035;49.978;8.298;2023-02-15T08:39:06;5.30;77.60
23713;DHT22;12035;49.978;8.298;2023-02-15T08:44:08;5.30;77.60
23713;DHT22;12035;49.978;8.298;2023-02-15T08:49:06;5.30;77.70
23713;DHT22;12035;49.978;8.298;2023-02-15T08:54:07;5.30;77.60
23713;DHT22;12035;49.978;8.298;2023-02-15T08:59:12;5.40;77.80
23713;DHT22;12035;49.978;8.298;2023-02-15T09:04:10;5.40;78.40
23713;DHT22;12035;49.978;8.298;2023-02-15T09:09:09;5.40;77.40
23713;DHT22;12035;49.978;8.298;2023-02-15T09:14:10;5.30;77.50
23713;DHT22;12035;49.978;8.298;2023-02-15T09:19:09;5.30;77.80
23713;DHT22;12035;49.978;8.298;2023-02-15T09:24:09;5.30;77.90
23713;DHT22;12035;49.978;8.298;2023-02-15T09:29:10;5.30;77.80
23713;DHT22;12035;49.978;8.298;2023-02-15T09:34:09;5.30;78.60
23713;DHT22;12035;49.978;8.298;2023-02-15T09:39:08;5.30;77.90
23713;DHT22;12035;49.978;8.298;2023-02-15T09:44:15;5.30;77.90
23713;DHT22;12035;49.978;8.298;2023-02-15T09:49:24;5.30;78.20
23713;DHT22;12035;49.978;8.298;2023-02-15T10:00:04;5.40;78.30
23713;DHT22;12035;49.978;8.298;2023-02-15T10:05:16;5.40;78.20
23713;DHT22;12035;49.978;8.298;2023-02-15T10:10:24;5.30;78.10
23713;DHT22;12035;49.978;8.298;2023-02-15T10:15:37;5.40;78.40
23713;DHT22;12035;49.978;8.298;2023-02-15T10:20:55;5.50;78.60
23713;DHT22;12035;49.978;8.298;2023-02-15T10:26:00;5.60;78.60
23713;DHT22;12035;49.978;8.298;2023-02-15T10:31:13;5.60;78.40
23713;DHT22;12035;49.978;8.298;2023-02-15T10:36:24;5.60;78.30
23713;DHT22;12035;49.978;8.298;2023-02-15T10:41:35;5.70;78.20
23713;DHT22;12035;49.978;8.298;2023-02-15T10:47:20;5.70;78.20
23713;DHT22;12035;49.978;8.298;2023-02-15T10:52:37;5.80;78.20
23713;DHT22;12035;49.978;8.298;2023-02-15T10:57:51;5.80;77.90
23713;DHT22;12035;49.978;8.298;2023-02-15T11:03:05;5.80;78.00
23713;DHT22;12035;49.978;8.298;2023-02-15T11:08:17;5.90;78.10
23713;DHT22;12035;49.978;8.298;2023-02-15T11:13:18;5.90;78.20
23713;DHT22;12035;49.978;8.298;2023-02-15T11:18:23;6.00;78.10
23713;DHT22;12035;49.978;8.298;2023-02-15T11:23:24;6.10;78.00
23713;DHT22;12035;49.978;8.298;2023-02-15T11:28:30;6.10;77.70
23713;DHT22;12035;49.978;8.298;2023-02-15T11:33:34;6.20;77.60
23713;DHT22;12035;49.978;8.298;2023-02-15T11:38:34;6.20;77.30
23713;DHT22;12035;49.978;8.298;2023-02-15T11:43:35;6.20;77.50
23713;DHT22;12035;49.978;8.298;2023-02-15T11:48:36;6.20;77.50
23713;DHT22;12035;49.978;8.298;2023-02-15T11:53:36;6.40;77.60
23713;DHT22;12035;49.978;8.298;2023-02-15T11:58:39;6.30;77.50
23713;DHT22;12035;49.978;8.298;2023-02-15T12:03:44;6.30;77.50
23713;DHT22;12035;49.978;8.298;2023-02-15T12:08:49;6.30;77.60
23713;DHT22;12035;49.978;8.298;2023-02-15T12:13:54;6.30;77.80
23713;DHT22;12035;49.978;8.298;2023-02-15T12:18:55;6.30;77.70
23713;DHT22;12035;49.978;8.298;2023-02-15T12:23:56;6.40;77.70
23713;DHT22;12035;49.978;8.298;2023-02-15T12:28:58;6.40;77.60
23713;DHT22;12035;49.978;8.298;2023-02-15T12:34:00;6.40;77.30
23713;DHT22;12035;49.978;8.298;2023-02-15T12:39:05;6.40;77.20
23713;DHT22;12035;49.978;8.298;2023-02-15T12:44:17;6.40;77.20
23713;DHT22;12035;49.978;8.298;2023-02-15T12:49:19;6.30;77.20
23713;DHT22;12035;49.978;8.298;2023-02-15T12:54:38;6.30;77.30
23713;DHT22;12035;49.978;8.298;2023-02-15T12:59:36;6.30;77.50
23713;DHT22;12035;49.978;8.298;2023-02-15T13:04:35;6.30;77.50
23713;DHT22;12035;49.978;8.298;2023-02-15T13:09:37;6.40;77.40
23713;DHT22;12035;49.978;8.298;2023-02-15T13:14:35;6.40;77.30
23713;DHT22;12035;49.978;8.298;2023-02-15T13:19:36;6.40;77.30
23713;DHT22;12035;49.978;8.298;2023-02-15T13:24:39;6.40;77.40
23713;DHT22;12035;49.978;8.298;2023-02-15T13:29:38;6.40;77.50
23713;DHT22;12035;49.978;8.298;2023-02-15T13:34:39;6.40;77.50
23713;DHT22;12035;49.978;8.298;2023-02-15T13:39:40;6.40;77.30
23713;DHT22;12035;49.978;8.298;2023-02-15T13:44:55;6.40;77.10
23713;DHT22;12035;49.978;8.298;2023-02-15T13:50:23;6.40;78.00
23713;DHT22;12035;49.978;8.298;2023-02-15T13:55:38;6.40;77.10
23713;DHT22;12035;49.978;8.298;2023-02-15T14:00:44;6.40;77.10
23713;DHT22;12035;49.978;8.298;2023-02-15T14:06:03;6.50;77.70
23713;DHT22;12035;49.978;8.298;2023-02-15T14:11:15;6.50;77.00
23713;DHT22;12035;49.978;8.298;2023-02-15T14:16:20;6.50;77.90
23713;DHT22;12035;49.978;8.298;2023-02-15T14:21:30;6.60;76.90
23713;DHT22;12035;49.978;8.298;2023-02-15T14:26:35;6.50;76.70
23713;DHT22;12035;49.978;8.298;2023-02-15T14:31:40;6.50;76.70
23713;DHT22;12035;49.978;8.298;2023-02-15T14:36:39;6.60;76.70
23713;DHT22;12035;49.978;8.298;2023-02-15T14:41:41;6.60;76.70
23713;DHT22;12035;49.978;8.298;2023-02-15T14:46:48;6.60;76.70
23713;DHT22;12035;49.978;8.298;2023-02-15T14:52:02;6.70;76.90
23713;DHT22;12035;49.978;8.298;2023-02-15T15:02:43;6.70;77.00
23713;DHT22;12035;49.978;8.298;2023-02-15T15:07:46;6.80;76.90
23713;DHT22;12035;49.978;8.298;2023-02-15T15:12:45;6.80;76.60
23713;DHT22;12035;49.978;8.298;2023-02-15T15:17:58;6.80;76.60
23713;DHT22;12035;49.978;8.298;2023-02-15T15:28:58;6.90;76.40
23713;DHT22;12035;49.978;8.298;2023-02-15T15:34:38;6.90;76.20
23713;DHT22;12035;49.978;8.298;2023-02-15T15:45:57;6.90;76.10
23713;DHT22;12035;49.978;8.298;2023-02-15T15:51:12;6.80;76.00
23713;DHT22;12035;49.978;8.298;2023-02-15T15:56:19;6.80;75.90
23713;DHT22;12035;49.978;8.298;2023-02-15T16:01:24;6.80;76.00
23713;DHT22;12035;49.978;8.298;2023-02-15T16:06:29;6.70;76.00
23713;DHT22;12035;49.978;8.298;2023-02-15T16:11:31;6.70;76.10
23713;DHT22;12035;49.978;8.298;2023-02-15T16:16:29;6.70;76.20
23713;DHT22;12035;49.978;8.298;2023-02-15T16:21:29;6.70;76.20
23713;DHT22;12035;49.978;8.298;2023-02-15T16:26:53;6.70;76.20
23713;DHT22;12035;49.978;8.298;2023-02-15T16:32:01;6.70;76.10
23713;DHT22;12035;49.978;8.298;2023-02-15T16:37:14;6.60;76.20
23713;DHT22;12035;49.978;8.298;2023-02-15T16:42:16;6.50;76.40
23713;DHT22;12035;49.978;8.298;2023-02-15T16:47:17;6.50;76.40
23713;DHT22;12035;49.978;8.298;2023-02-15T16:52:19;6.50;76.50
23713;DHT22;12035;49.978;8.298;2023-02-15T16:57:22;6.50;76.70
23713;DHT22;12035;49.978;8.298;2023-02-15T17:02:24;6.50;76.70
23713;DHT22;12035;49.978;8.298;2023-02-15T17:07:24;6.50;76.70
23713;DHT22;12035;49.978;8.298;2023-02-15T17:12:45;6.50;77.00
23713;DHT22;12035;49.978;8.298;2023-02-15T17:17:44;6.50;76.70
23713;DHT22;12035;49.978;8.298;2023-02-15T17:22:43;6.50;76.60
23713;DHT22;12035;49.978;8.298;2023-02-15T17:27:40;6.50;76.70
23713;DHT22;12035;49.978;8.298;2023-02-15T17:32:52;6.40;76.90
23713;DHT22;12035;49.978;8.298;2023-02-15T17:38:01;6.40;77.20
23713;DHT22;12035;49.978;8.298;2023-02-15T17:43:02;6.40;77.30
23713;DHT22;12035;49.978;8.298;2023-02-15T17:48:02;6.40;77.20
23713;DHT22;12035;49.978;8.298;2023-02-15T17:53:00;6.40;77.30
23713;DHT22;12035;49.978;8.298;2023-02-15T17:57:59;6.40;77.10
23713;DHT22;12035;49.978;8.298;2023-02-15T18:02:56;6.40;77.10
23713;DHT22;12035;49.978;8.298;2023-02-15T18:08:15;6.30;77.20
23713;DHT22;12035;49.978;8.298;2023-02-15T18:13:31;6.30;77.30
23713;DHT22;12035;49.978;8.298;2023-02-15T18:18:28;6.30;77.30
23713;DHT22;12035;49.978;8.298;2023-02-15T18:23:27;6.20;77.30
23713;DHT22;12035;49.978;8.298;2023-02-15T18:28:24;6.20;77.20
23713;DHT22;12035;49.978;8.298;2023-02-15T18:33:31;6.10;77.10
23713;DHT22;12035;49.978;8.298;2023-02-15T18:38:32;6.10;77.30
23713;DHT22;12035;49.978;8.298;2023-02-15T18:43:29;6.00;77.40
23713;DHT22;12035;49.978;8.298;2023-02-15T18:48:27;6.00;77.60
23713;DHT22;12035;49.978;8.298;2023-02-15T18:53:24;6.00;77.80
23713;DHT22;12035;49.978;8.298;2023-02-15T18:58:22;6.00;77.90
23713;DHT22;12035;49.978;8.298;2023-02-15T19:03:22;6.00;77.80
23713;DHT22;12035;49.978;8.298;2023-02-15T19:08:21;6.00;77.60
23713;DHT22;12035;49.978;8.298;2023-02-15T19:13:19;5.90;77.70
23713;DHT22;12035;49.978;8.298;2023-02-15T19:18:21;5.90;77.80
23713;DHT22;12035;49.978;8.298;2023-02-15T19:23:28;5.80;77.90
23713;DHT22;12035;49.978;8.298;2023-02-15T19:28:34;5.90;78.10
23713;DHT22;12035;49.978;8.298;2023-02-15T19:33:36;5.90;78.10
23713;DHT22;12035;49.978;8.298;2023-02-15T19:38:36;5.90;78.00
23713;DHT22;12035;49.978;8.298;2023-02-15T19:43:39;5.90;78.10
23713;DHT22;12035;49.978;8.298;2023-02-15T19:48:37;5.80;78.20
23713;DHT22;12035;49.978;8.298;2023-02-15T19:53:37;5.90;78.30
23713;DHT22;12035;49.978;8.298;2023-02-15T19:58:42;5.90;78.30
23713;DHT22;12035;49.978;8.298;2023-02-15T20:03:39;6.00;78.60
23713;DHT22;12035;49.978;8.298;2023-02-15T20:08:47;6.00;78.50
23713;DHT22;12035;49.978;8.298;2023-02-15T20:13:50;6.00;78.40
23713;DHT22;12035;49.978;8.298;2023-02-15T20:18:47;6.10;79.10
23713;DHT22;12035;49.978;8.298;2023-02-15T20:23:47;6.10;78.10
23713;DHT22;12035;49.978;8.298;2023-02-15T20:28:53;6.00;77.80
23713;DHT22;12035;49.978;8.298;2023-02-15T20:33:50;6.00;77.80
23713;DHT22;12035;49.978;8.298;2023-02-15T20:38:52;6.00;77.90
23713;DHT22;12035;49.978;8.298;2023-02-15T20:44:13;6.00;78.00
23713;DHT22;12035;49.978;8.298;2023-02-15T20:49:13;6.00;78.10
23713;DHT22;12035;49.978;8.298;2023-02-15T20:54:20;6.00;77.80
23713;DHT22;12035;49.978;8.298;2023-02-15T20:59:24;6.00;77.70
23713;DHT22;12035;49.978;8.298;2023-02-15T21:04:28;5.90;77.80
23713;DHT22;12035;49.978;8.298;2023-02-15T21:09:29;5.90;77.90
23713;DHT22;12035;49.978;8.298;2023-02-15T21:14:52;5.90;77.80
23713;DHT22;12035;49.978;8.298;2023-02-15T21:19:51;5.90;77.90
23713;DHT22;12035;49.978;8.298;2023-02-15T21:24:50;5.90;78.00
23713;DHT22;12035;49.978;8.298;2023-02-15T21:29:54;5.90;78.20
23713;DHT22;12035;49.978;8.298;2023-02-15T21:35:01;5.90;78.20
23713;DHT22;12035;49.978;8.298;2023-02-15T21:40:00;5.90;78.00
23713;DHT22;12035;49.978;8.298;2023-02-15T21:45:12;5.90;78.20
23713;DHT22;12035;49.978;8.298;2023-02-15T21:50:30;6.00;78.30
23713;DHT22;12035;49.978;8.298;2023-02-15T21:55:45;6.00;78.10
23713;DHT22;12035;49.978;8.298;2023-02-15T22:00:55;5.90;78.10
23713;DHT22;12035;49.978;8.298;2023-02-15T22:05:56;6.00;78.20
23713;DHT22;12035;49.978;8.298;2023-02-15T22:10:54;6.00;78.20
23713;DHT22;12035;49.978;8.298;2023-02-15T22:15:54;6.00;78.20
23713;DHT22;12035;49.978;8.298;2023-02-15T22:20:52;6.00;77.90
23713;DHT22;12035;49.978;8.298;2023-02-15T22:25:51;6.00;77.80
23713;DHT22;12035;49.978;8.298;2023-02-15T22:30:54;5.90;77.70
23713;DHT22;12035;49.978;8.298;2023-02-15T22:35:51;5.90;77.80
23713;DHT22;12035;49.978;8.298;2023-02-15T22:40:49;5.90;77.90
23713;DHT22;12035;49.978;8.298;2023-02-15T22:45:48;5.90;78.20
23713;DHT22;12035;49.978;8.298;2023-02-15T22:50:47;5.80;78.20
23713;DHT22;12035;49.978;8.298;2023-02-15T22:55:45;5.80;79.10
23713;DHT22;12035;49.978;8.298;2023-02-15T23:00:42;5.90;78.30
23713;DHT22;12035;49.978;8.298;2023-02-15T23:05:40;5.90;78.40
23713;DHT22;12035;49.978;8.298;2023-02-15T23:10:41;5.80;78.20
23713;DHT22;12035;49.978;8.298;2023-02-15T23:15:40;5.90;78.20
23713;DHT22;12035;49.978;8.298;2023-02-15T23:20:39;5.80;78.10
23713;DHT22;12035;49.978;8.298;2023-02-15T23:25:36;5.80;78.20
23713;DHT22;12035;49.978;8.298;2023-02-15T23:30:34;5.80;78.10
23713;DHT22;12035;49.978;8.298;2023-02-15T23:35:32;5.80;78.10
23713;DHT22;12035;49.978;8.298;2023-02-15T23:40:29;5.70;78.10
23713;DHT22;12035;49.978;8.298;2023-02-15T23:45:59;5.60;78.20
23713;DHT22;12035;49.978;8.298;2023-02-15T23:50:58;5.50;78.20
23713;DHT22;12035;49.978;8.298;2023-02-15T23:55:55;5.60;78.40
